sensor_id;sensor_type;location;lat;lon;timestamp;pressure;altitude;pressure_sealevel;temperature;humidity
41254;BME280;26987;59.928;30.306;2022-09-14T00:01:08;100494.13;;;11.98;76.21
41254;BME280;26987;59.928;30.306;2022-09-14T00:03:37;100495.97;;;11.98;76.56
41254;BME280;26987;59.928;30.306;2022-09-14T00:06:07;100496.19;;;11.96;76.24
41254;BME280;26987;59.928;30.306;2022-09-14T00:08:37;100487.53;;;11.94;76.44
41254;BME280;26987;59.928;30.306;2022-09-14T00:11:07;100488.56;;;11.93;76.71
41254;BME280;26987;59.928;30.306;2022-09-14T00:13:35;100482.63;;;11.91;76.68
41254;BME280;26987;59.928;30.306;2022-09-14T00:16:09;100491.25;;;11.93;76.86
41254;BME280;26987;59.928;30.306;2022-09-14T00:18:39;100482.84;;;11.90;76.34
41254;BME280;26987;59.928;30.306;2022-09-14T00:21:09;100483.50;;;11.85;76.90
41254;BME280;26987;59.928;30.306;2022-09-14T00:23:39;100482.28;;;11.81;76.78
41254;BME280;26987;59.928;30.306;2022-09-14T00:26:09;100472.00;;;11.78;77.12
41254;BME280;26987;59.928;30.306;2022-09-14T00:28:37;100475.72;;;11.77;77.48
41254;BME280;26987;59.928;30.306;2022-09-14T00:31:07;100464.59;;;11.73;77.71
41254;BME280;26987;59.928;30.306;2022-09-14T00:33:35;100459.44;;;11.71;77.21
41254;BME280;26987;59.928;30.306;2022-09-14T00:36:05;100460.91;;;11.67;77.79
41254;BME280;26987;59.928;30.306;2022-09-14T00:38:34;100465.72;;;11.65;77.86
41254;BME280;26987;59.928;30.306;2022-09-14T00:41:04;100463.47;;;11.62;78.14
41254;BME280;26987;59.928;30.306;2022-09-14T00:43:50;100461.81;;;11.61;78.58
41254;BME280;26987;59.928;30.306;2022-09-14T00:46:20;100460.81;;;11.55;79.12
41254;BME280;26987;59.928;30.306;2022-09-14T00:48:50;100462.91;;;11.53;79.11
41254;BME280;26987;59.928;30.306;2022-09-14T00:51:19;100454.53;;;11.43;78.82
41254;BME280;26987;59.928;30.306;2022-09-14T00:53:48;100461.75;;;11.42;79.15
41254;BME280;26987;59.928;30.306;2022-09-14T00:56:16;100462.81;;;11.41;79.49
41254;BME280;26987;59.928;30.306;2022-09-14T00:58:47;100466.53;;;11.40;79.27
41254;BME280;26987;59.928;30.306;2022-09-14T01:01:16;100463.25;;;11.38;79.47
41254;BME280;26987;59.928;30.306;2022-09-14T01:03:45;100456.22;;;11.37;79.54
41254;BME280;26987;59.928;30.306;2022-09-14T01:06:17;100458.31;;;11.35;79.75
41254;BME280;26987;59.928;30.306;2022-09-14T01:09:08;100451.69;;;11.38;79.97
41254;BME280;26987;59.928;30.306;2022-09-14T01:11:45;100454.22;;;11.32;79.78
41254;BME280;26987;59.928;30.306;2022-09-14T01:14:28;100460.25;;;11.28;80.19
41254;BME280;26987;59.928;30.306;2022-09-14T01:17:03;100449.75;;;11.19;80.70
41254;BME280;26987;59.928;30.306;2022-09-14T01:19:47;100448.34;;;11.17;80.61
41254;BME280;26987;59.928;30.306;2022-09-14T01:22:25;100439.44;;;11.16;80.86
41254;BME280;26987;59.928;30.306;2022-09-14T01:25:08;100442.97;;;11.17;80.50
41254;BME280;26987;59.928;30.306;2022-09-14T01:27:42;100440.50;;;11.15;80.51
41254;BME280;26987;59.928;30.306;2022-09-14T01:30:13;100437.06;;;11.08;81.41
41254;BME280;26987;59.928;30.306;2022-09-14T01:32:45;100435.00;;;11.03;81.14
41254;BME280;26987;59.928;30.306;2022-09-14T01:35:21;100429.66;;;11.03;81.45
41254;BME280;26987;59.928;30.306;2022-09-14T01:37:52;100423.13;;;10.92;81.54
41254;BME280;26987;59.928;30.306;2022-09-14T01:40:27;100431.78;;;10.94;81.69
41254;BME280;26987;59.928;30.306;2022-09-14T01:43:01;100420.88;;;10.89;82.24
41254;BME280;26987;59.928;30.306;2022-09-14T01:45:31;100424.88;;;10.80;82.73
41254;BME280;26987;59.928;30.306;2022-09-14T01:48:01;100417.69;;;10.74;82.86
41254;BME280;26987;59.928;30.306;2022-09-14T01:50:35;100411.75;;;10.65;83.67
41254;BME280;26987;59.928;30.306;2022-09-14T01:53:07;100400.28;;;10.51;83.95
41254;BME280;26987;59.928;30.306;2022-09-14T01:55:39;100404.00;;;10.50;84.35
41254;BME280;26987;59.928;30.306;2022-09-14T01:58:13;100404.44;;;10.46;84.21
41254;BME280;26987;59.928;30.306;2022-09-14T02:00:44;100369.69;;;10.19;84.83
41254;BME280;26987;59.928;30.306;2022-09-14T02:03:16;100399.47;;;10.37;85.20
41254;BME280;26987;59.928;30.306;2022-09-14T02:05:49;100396.84;;;10.30;85.82
41254;BME280;26987;59.928;30.306;2022-09-14T02:08:18;100393.38;;;10.22;86.24
41254;BME280;26987;59.928;30.306;2022-09-14T02:10:46;100389.66;;;10.17;86.50
41254;BME280;26987;59.928;30.306;2022-09-14T02:13:16;100385.59;;;10.07;87.36
41254;BME280;26987;59.928;30.306;2022-09-14T02:15:44;100388.09;;;10.02;87.58
41254;BME280;26987;59.928;30.306;2022-09-14T02:18:12;100386.47;;;9.94;87.90
41254;BME280;26987;59.928;30.306;2022-09-14T02:20:43;100381.53;;;9.91;88.50
41254;BME280;26987;59.928;30.306;2022-09-14T02:23:13;100384.84;;;9.87;88.22
41254;BME280;26987;59.928;30.306;2022-09-14T02:25:41;100372.69;;;9.84;88.71
41254;BME280;26987;59.928;30.306;2022-09-14T02:28:10;100370.25;;;9.76;88.80
41254;BME280;26987;59.928;30.306;2022-09-14T02:30:48;100374.53;;;9.83;89.09
41254;BME280;26987;59.928;30.306;2022-09-14T02:33:37;100371.66;;;9.85;89.21
41254;BME280;26987;59.928;30.306;2022-09-14T02:36:13;100369.00;;;9.78;89.81
41254;BME280;26987;59.928;30.306;2022-09-14T02:38:47;100365.53;;;9.71;89.90
41254;BME280;26987;59.928;30.306;2022-09-14T02:41:20;100348.66;;;9.64;89.89
41254;BME280;26987;59.928;30.306;2022-09-14T02:43:57;100363.88;;;9.70;90.16
41254;BME280;26987;59.928;30.306;2022-09-14T02:46:34;100360.78;;;9.73;90.07
41254;BME280;26987;59.928;30.306;2022-09-14T02:49:10;100367.59;;;9.76;90.33
41254;BME280;26987;59.928;30.306;2022-09-14T02:51:45;100358.09;;;9.80;90.24
41254;BME280;26987;59.928;30.306;2022-09-14T02:54:21;100359.13;;;9.79;89.83
41254;BME280;26987;59.928;30.306;2022-09-14T02:56:51;100353.78;;;9.79;89.91
41254;BME280;26987;59.928;30.306;2022-09-14T02:59:19;100352.31;;;9.83;89.68
41254;BME280;26987;59.928;30.306;2022-09-14T03:01:48;100351.91;;;9.86;89.64
41254;BME280;26987;59.928;30.306;2022-09-14T03:04:16;100346.53;;;9.86;89.08
41254;BME280;26987;59.928;30.306;2022-09-14T03:06:44;100346.91;;;9.90;89.44
41254;BME280;26987;59.928;30.306;2022-09-14T03:09:12;100343.44;;;9.89;89.48
41254;BME280;26987;59.928;30.306;2022-09-14T03:11:40;100327.16;;;9.91;89.49
41254;BME280;26987;59.928;30.306;2022-09-14T03:14:09;100328.78;;;9.92;89.11
41254;BME280;26987;59.928;30.306;2022-09-14T03:16:37;100320.53;;;9.93;89.35
41254;BME280;26987;59.928;30.306;2022-09-14T03:19:06;100313.34;;;9.94;88.89
41254;BME280;26987;59.928;30.306;2022-09-14T03:21:36;100304.06;;;9.90;88.78
41254;BME280;26987;59.928;30.306;2022-09-14T03:24:05;100307.16;;;9.93;88.90
41254;BME280;26987;59.928;30.306;2022-09-14T03:26:33;100301.81;;;9.93;89.04
41254;BME280;26987;59.928;30.306;2022-09-14T03:29:04;100311.69;;;9.93;89.01
41254;BME280;26987;59.928;30.306;2022-09-14T03:31:33;100306.97;;;9.88;88.89
41254;BME280;26987;59.928;30.306;2022-09-14T03:34:01;100303.69;;;9.86;88.94
41254;BME280;26987;59.928;30.306;2022-09-14T03:36:31;100303.69;;;9.86;89.20
41254;BME280;26987;59.928;30.306;2022-09-14T03:39:00;100293.41;;;9.83;89.00
41254;BME280;26987;59.928;30.306;2022-09-14T03:41:28;100300.81;;;9.81;89.40
41254;BME280;26987;59.928;30.306;2022-09-14T03:43:56;100299.59;;;9.77;89.71
41254;BME280;26987;59.928;30.306;2022-09-14T03:46:24;100299.81;;;9.75;89.55
41254;BME280;26987;59.928;30.306;2022-09-14T03:48:53;100289.13;;;9.68;89.67
41254;BME280;26987;59.928;30.306;2022-09-14T03:51:22;100292.00;;;9.74;89.81
41254;BME280;26987;59.928;30.306;2022-09-14T03:53:51;100291.78;;;9.75;89.66
41254;BME280;26987;59.928;30.306;2022-09-14T03:56:21;100298.78;;;9.76;90.34
41254;BME280;26987;59.928;30.306;2022-09-14T03:58:49;100296.94;;;9.77;89.73
41254;BME280;26987;59.928;30.306;2022-09-14T04:01:19;100294.25;;;9.77;90.28
41254;BME280;26987;59.928;30.306;2022-09-14T04:03:47;100297.75;;;9.77;90.13
41254;BME280;26987;59.928;30.306;2022-09-14T04:06:17;100294.03;;;9.78;89.73
41254;BME280;26987;59.928;30.306;2022-09-14T04:08:45;100307.44;;;9.78;90.30
41254;BME280;26987;59.928;30.306;2022-09-14T04:11:16;100308.25;;;9.79;90.26
41254;BME280;26987;59.928;30.306;2022-09-14T04:13:45;100301.44;;;9.76;89.71
41254;BME280;26987;59.928;30.306;2022-09-14T04:16:13;100292.63;;;9.76;89.48
41254;BME280;26987;59.928;30.306;2022-09-14T04:18:41;100305.78;;;9.77;89.50
41254;BME280;26987;59.928;30.306;2022-09-14T04:21:12;100296.72;;;9.78;89.63
41254;BME280;26987;59.928;30.306;2022-09-14T04:23:41;100300.03;;;9.74;89.82
41254;BME280;26987;59.928;30.306;2022-09-14T04:26:10;100295.50;;;9.74;89.82
41254;BME280;26987;59.928;30.306;2022-09-14T04:28:39;100307.44;;;9.78;89.86
41254;BME280;26987;59.928;30.306;2022-09-14T04:31:08;100297.53;;;9.79;90.02
41254;BME280;26987;59.928;30.306;2022-09-14T04:33:38;100292.56;;;9.82;89.51
41254;BME280;26987;59.928;30.306;2022-09-14T04:36:08;100292.16;;;9.86;90.14
41254;BME280;26987;59.928;30.306;2022-09-14T04:38:37;100278.97;;;9.84;89.82
41254;BME280;26987;59.928;30.306;2022-09-14T04:41:08;100284.69;;;9.94;89.72
41254;BME280;26987;59.928;30.306;2022-09-14T04:43:36;100276.50;;;9.89;89.38
41254;BME280;26987;59.928;30.306;2022-09-14T04:46:12;100280.53;;;9.99;89.52
41254;BME280;26987;59.928;30.306;2022-09-14T04:48:41;100278.31;;;9.95;89.07
41254;BME280;26987;59.928;30.306;2022-09-14T04:51:12;100285.47;;;10.02;89.64
41254;BME280;26987;59.928;30.306;2022-09-14T04:53:42;100278.47;;;10.01;89.87
41254;BME280;26987;59.928;30.306;2022-09-14T04:56:12;100279.09;;;10.03;90.22
41254;BME280;26987;59.928;30.306;2022-09-14T04:58:42;100282.97;;;10.07;90.14
41254;BME280;26987;59.928;30.306;2022-09-14T05:01:13;100275.16;;;10.05;89.77
41254;BME280;26987;59.928;30.306;2022-09-14T05:03:42;100277.00;;;10.05;90.45
41254;BME280;26987;59.928;30.306;2022-09-14T05:06:12;100282.97;;;10.07;90.41
41254;BME280;26987;59.928;30.306;2022-09-14T05:08:40;100287.50;;;10.06;90.89
41254;BME280;26987;59.928;30.306;2022-09-14T05:11:12;100274.53;;;10.10;91.15
41254;BME280;26987;59.928;30.306;2022-09-14T05:13:40;100286.28;;;10.09;91.80
41254;BME280;26987;59.928;30.306;2022-09-14T05:16:09;100282.56;;;10.10;92.04
41254;BME280;26987;59.928;30.306;2022-09-14T05:18:42;100281.72;;;10.09;90.84
41254;BME280;26987;59.928;30.306;2022-09-14T05:21:12;100272.88;;;10.09;91.83
41254;BME280;26987;59.928;30.306;2022-09-14T05:23:41;100269.41;;;10.02;90.68
41254;BME280;26987;59.928;30.306;2022-09-14T05:26:09;100279.25;;;10.08;92.03
41254;BME280;26987;59.928;30.306;2022-09-14T05:28:37;100271.00;;;10.09;92.04
41254;BME280;26987;59.928;30.306;2022-09-14T05:31:06;100268.94;;;10.12;92.39
41254;BME280;26987;59.928;30.306;2022-09-14T05:33:34;100275.09;;;10.12;91.72
41254;BME280;26987;59.928;30.306;2022-09-14T05:36:06;100276.56;;;10.15;92.10
41254;BME280;26987;59.928;30.306;2022-09-14T05:38:36;100268.53;;;10.15;91.10
41254;BME280;26987;59.928;30.306;2022-09-14T05:41:06;100271.19;;;10.15;92.98
41254;BME280;26987;59.928;30.306;2022-09-14T05:43:34;100259.03;;;10.12;91.62
41254;BME280;26987;59.928;30.306;2022-09-14T05:46:03;100269.94;;;10.17;91.33
41254;BME280;26987;59.928;30.306;2022-09-14T05:48:31;100261.28;;;10.15;91.31
41254;BME280;26987;59.928;30.306;2022-09-14T05:50:59;100260.28;;;10.16;91.18
41254;BME280;26987;59.928;30.306;2022-09-14T05:53:29;100260.28;;;10.16;90.61
41254;BME280;26987;59.928;30.306;2022-09-14T05:56:02;100261.69;;;10.19;91.59
41254;BME280;26987;59.928;30.306;2022-09-14T05:58:30;100257.75;;;10.21;91.56
41254;BME280;26987;59.928;30.306;2022-09-14T06:01:00;100256.53;;;10.24;91.45
41254;BME280;26987;59.928;30.306;2022-09-14T06:03:32;100251.09;;;10.31;91.25
41254;BME280;26987;59.928;30.306;2022-09-14T06:06:00;100251.06;;;10.38;91.12
41254;BME280;26987;59.928;30.306;2022-09-14T06:08:30;100249.75;;;10.47;91.27
41254;BME280;26987;59.928;30.306;2022-09-14T06:11:02;100222.16;;;10.40;90.93
41254;BME280;26987;59.928;30.306;2022-09-14T06:13:30;100252.78;;;10.57;90.01
41254;BME280;26987;59.928;30.306;2022-09-14T06:16:01;100254.22;;;10.60;90.53
41254;BME280;26987;59.928;30.306;2022-09-14T06:18:30;100257.50;;;10.62;90.86
41254;BME280;26987;59.928;30.306;2022-09-14T06:20:59;100254.97;;;10.67;90.71
41254;BME280;26987;59.928;30.306;2022-09-14T06:23:27;100250.81;;;10.71;89.77
41254;BME280;26987;59.928;30.306;2022-09-14T06:25:57;100252.63;;;10.78;89.73
41254;BME280;26987;59.928;30.306;2022-09-14T06:28:26;100247.88;;;10.80;90.12
41254;BME280;26987;59.928;30.306;2022-09-14T06:30:55;100256.13;;;10.78;89.91
41254;BME280;26987;59.928;30.306;2022-09-14T06:33:23;100254.88;;;10.81;90.58
41254;BME280;26987;59.928;30.306;2022-09-14T06:35:54;100251.97;;;10.82;90.88
41254;BME280;26987;59.928;30.306;2022-09-14T06:38:22;100255.31;;;10.78;89.98
41254;BME280;26987;59.928;30.306;2022-09-14T06:40:51;100254.69;;;10.76;90.86
41254;BME280;26987;59.928;30.306;2022-09-14T06:43:23;100243.44;;;10.67;90.57
41254;BME280;26987;59.928;30.306;2022-09-14T06:45:56;100250.16;;;10.76;91.89
41254;BME280;26987;59.928;30.306;2022-09-14T06:48:24;100243.66;;;10.65;91.24
41254;BME280;26987;59.928;30.306;2022-09-14T06:50:52;100252.44;;;10.72;91.17
41254;BME280;26987;59.928;30.306;2022-09-14T06:53:20;100255.56;;;10.69;92.69
41254;BME280;26987;59.928;30.306;2022-09-14T06:55:48;100244.91;;;10.63;91.64
41254;BME280;26987;59.928;30.306;2022-09-14T06:58:16;100243.50;;;10.60;93.25
41254;BME280;26987;59.928;30.306;2022-09-14T07:00:45;100244.31;;;10.60;92.66
41254;BME280;26987;59.928;30.306;2022-09-14T07:03:13;100229.91;;;10.55;93.21
41254;BME280;26987;59.928;30.306;2022-09-14T07:05:41;100232.59;;;10.55;93.04
41254;BME280;26987;59.928;30.306;2022-09-14T07:08:09;100236.25;;;10.60;93.70
41254;BME280;26987;59.928;30.306;2022-09-14T07:10:37;100242.66;;;10.59;93.53
41254;BME280;26987;59.928;30.306;2022-09-14T07:13:05;100243.50;;;10.60;93.37
41254;BME280;26987;59.928;30.306;2022-09-14T07:15:33;100236.31;;;10.54;93.84
41254;BME280;26987;59.928;30.306;2022-09-14T07:18:02;100236.69;;;10.57;93.78
41254;BME280;26987;59.928;30.306;2022-09-14T07:20:30;100243.31;;;10.55;94.26
41254;BME280;26987;59.928;30.306;2022-09-14T07:23:00;100232.44;;;10.50;95.33
41254;BME280;26987;59.928;30.306;2022-09-14T07:25:31;100234.50;;;10.47;94.12
41254;BME280;26987;59.928;30.306;2022-09-14T07:27:58;100225.44;;;10.49;95.00
41254;BME280;26987;59.928;30.306;2022-09-14T07:30:27;100225.59;;;10.54;94.28
41254;BME280;26987;59.928;30.306;2022-09-14T07:32:55;100215.91;;;10.53;94.64
41254;BME280;26987;59.928;30.306;2022-09-14T07:35:24;100231.13;;;10.59;95.19
41254;BME280;26987;59.928;30.306;2022-09-14T07:37:53;100216.69;;;10.60;94.31
41254;BME280;26987;59.928;30.306;2022-09-14T07:40:21;100230.69;;;10.62;93.77
41254;BME280;26987;59.928;30.306;2022-09-14T07:42:50;100219.94;;;10.62;94.45
41254;BME280;26987;59.928;30.306;2022-09-14T07:45:18;100219.50;;;10.65;93.14
41254;BME280;26987;59.928;30.306;2022-09-14T07:47:46;100222.38;;;10.70;93.22
41254;BME280;26987;59.928;30.306;2022-09-14T07:50:14;100219.91;;;10.69;92.42
41254;BME280;26987;59.928;30.306;2022-09-14T07:52:44;100219.47;;;10.72;92.31
41254;BME280;26987;59.928;30.306;2022-09-14T07:55:16;100222.72;;;10.74;92.31
41254;BME280;26987;59.928;30.306;2022-09-14T07:57:44;100222.69;;;10.81;93.19
41254;BME280;26987;59.928;30.306;2022-09-14T08:00:13;100212.72;;;10.88;92.40
41254;BME280;26987;59.928;30.306;2022-09-14T08:02:41;100211.59;;;10.96;91.65
41254;BME280;26987;59.928;30.306;2022-09-14T08:05:09;100216.66;;;11.04;91.56
41254;BME280;26987;59.928;30.306;2022-09-14T08:07:37;100215.56;;;11.12;90.87
41254;BME280;26987;59.928;30.306;2022-09-14T08:10:07;100205.72;;;11.25;90.34
41254;BME280;26987;59.928;30.306;2022-09-14T08:12:35;100211.00;;;11.31;89.64
41254;BME280;26987;59.928;30.306;2022-09-14T08:15:05;100208.69;;;11.35;88.57
41254;BME280;26987;59.928;30.306;2022-09-14T08:17:33;100203.63;;;11.45;87.99
41254;BME280;26987;59.928;30.306;2022-09-14T08:20:01;100204.34;;;11.53;88.17
41254;BME280;26987;59.928;30.306;2022-09-14T08:22:29;100203.72;;;11.69;86.53
41254;BME280;26987;59.928;30.306;2022-09-14T08:24:57;100207.84;;;11.84;86.63
41254;BME280;26987;59.928;30.306;2022-09-14T08:27:26;100196.06;;;11.85;85.55
41254;BME280;26987;59.928;30.306;2022-09-14T08:29:54;100190.13;;;11.95;86.08
41254;BME280;26987;59.928;30.306;2022-09-14T08:32:22;100197.44;;;12.06;84.71
41254;BME280;26987;59.928;30.306;2022-09-14T08:34:50;100188.69;;;12.23;83.89
41254;BME280;26987;59.928;30.306;2022-09-14T08:37:18;100182.88;;;12.38;83.54
41254;BME280;26987;59.928;30.306;2022-09-14T08:39:46;100183.72;;;12.51;81.64
41254;BME280;26987;59.928;30.306;2022-09-14T08:42:16;100177.16;;;12.58;81.03
41254;BME280;26987;59.928;30.306;2022-09-14T08:44:49;100178.47;;;12.68;80.34
41254;BME280;26987;59.928;30.306;2022-09-14T08:47:23;100179.97;;;12.76;80.17
41254;BME280;26987;59.928;30.306;2022-09-14T08:49:58;100170.72;;;12.83;79.79
41254;BME280;26987;59.928;30.306;2022-09-14T08:52:31;100183.13;;;12.84;80.13
41254;BME280;26987;59.928;30.306;2022-09-14T08:55:15;100169.91;;;12.83;79.05
41254;BME280;26987;59.928;30.306;2022-09-14T08:57:47;100145.47;;;12.72;79.52
41254;BME280;26987;59.928;30.306;2022-09-14T09:00:20;100169.91;;;12.95;78.60
41254;BME280;26987;59.928;30.306;2022-09-14T09:03:06;100163.91;;;12.93;78.70
41254;BME280;26987;59.928;30.306;2022-09-14T09:05:41;100161.94;;;12.88;78.74
41254;BME280;26987;59.928;30.306;2022-09-14T09:08:17;100167.00;;;12.84;78.73
41254;BME280;26987;59.928;30.306;2022-09-14T09:10:46;100167.69;;;12.80;78.45
41254;BME280;26987;59.928;30.306;2022-09-14T09:13:19;100162.88;;;12.82;78.81
41254;BME280;26987;59.928;30.306;2022-09-14T09:15:51;100154.22;;;12.92;77.78
41254;BME280;26987;59.928;30.306;2022-09-14T09:18:25;100154.75;;;13.06;78.16
41254;BME280;26987;59.928;30.306;2022-09-14T09:20:58;100145.38;;;13.20;77.73
41254;BME280;26987;59.928;30.306;2022-09-14T09:23:28;100138.66;;;13.35;77.10
41254;BME280;26987;59.928;30.306;2022-09-14T09:26:02;100142.28;;;13.70;76.83
41254;BME280;26987;59.928;30.306;2022-09-14T09:28:31;100125.88;;;13.71;73.75
41254;BME280;26987;59.928;30.306;2022-09-14T09:31:03;100138.06;;;13.91;73.16
41254;BME280;26987;59.928;30.306;2022-09-14T09:33:52;100132.56;;;13.86;73.04
41254;BME280;26987;59.928;30.306;2022-09-14T09:36:23;100139.09;;;13.90;72.09
41254;BME280;26987;59.928;30.306;2022-09-14T09:38:51;100125.88;;;14.06;71.94
41254;BME280;26987;59.928;30.306;2022-09-14T09:41:21;100124.56;;;14.08;70.98
41254;BME280;26987;59.928;30.306;2022-09-14T09:43:59;100121.63;;;14.27;71.39
41254;BME280;26987;59.928;30.306;2022-09-14T09:46:32;100116.00;;;14.29;70.79
41254;BME280;26987;59.928;30.306;2022-09-14T09:49:03;100115.91;;;14.23;70.49
41254;BME280;26987;59.928;30.306;2022-09-14T09:51:32;100109.88;;;14.16;70.27
41254;BME280;26987;59.928;30.306;2022-09-14T09:54:06;100103.34;;;14.29;71.43
41254;BME280;26987;59.928;30.306;2022-09-14T09:56:36;100100.66;;;14.29;70.06
41254;BME280;26987;59.928;30.306;2022-09-14T09:59:21;100107.22;;;14.56;70.69
41254;BME280;26987;59.928;30.306;2022-09-14T10:01:53;100092.41;;;14.58;69.07
41254;BME280;26987;59.928;30.306;2022-09-14T10:04:24;100111.25;;;14.75;68.72
41254;BME280;26987;59.928;30.306;2022-09-14T10:06:53;100096.28;;;14.85;67.34
41254;BME280;26987;59.928;30.306;2022-09-14T10:09:24;100099.72;;;14.80;68.00
41254;BME280;26987;59.928;30.306;2022-09-14T10:11:56;100085.59;;;14.73;69.06
41254;BME280;26987;59.928;30.306;2022-09-14T10:14:28;100095.38;;;15.01;68.28
41254;BME280;26987;59.928;30.306;2022-09-14T10:17:07;100088.56;;;14.94;67.70
41254;BME280;26987;59.928;30.306;2022-09-14T10:19:45;100095.66;;;15.28;67.53
41254;BME280;26987;59.928;30.306;2022-09-14T10:22:17;100089.56;;;14.87;67.50
41254;BME280;26987;59.928;30.306;2022-09-14T10:24:53;100084.97;;;14.88;67.84
41254;BME280;26987;59.928;30.306;2022-09-14T10:27:34;100083.84;;;14.84;67.87
41254;BME280;26987;59.928;30.306;2022-09-14T10:30:09;100061.59;;;14.54;67.31
41254;BME280;26987;59.928;30.306;2022-09-14T10:32:43;100078.66;;;14.60;68.45
41254;BME280;26987;59.928;30.306;2022-09-14T10:35:14;100079.97;;;14.57;67.62
41254;BME280;26987;59.928;30.306;2022-09-14T10:37:52;100071.56;;;14.54;68.80
41254;BME280;26987;59.928;30.306;2022-09-14T10:40:29;100069.84;;;14.47;68.22
41254;BME280;26987;59.928;30.306;2022-09-14T10:43:07;100069.94;;;14.53;67.81
41254;BME280;26987;59.928;30.306;2022-09-14T10:45:39;100063.09;;;14.45;67.12
41254;BME280;26987;59.928;30.306;2022-09-14T10:48:27;100073.00;;;14.39;67.72
41254;BME280;26987;59.928;30.306;2022-09-14T10:51:08;100064.44;;;14.25;67.99
41254;BME280;26987;59.928;30.306;2022-09-14T10:53:47;100068.69;;;14.21;68.08
41254;BME280;26987;59.928;30.306;2022-09-14T10:56:16;100063.34;;;14.43;67.53
41254;BME280;26987;59.928;30.306;2022-09-14T10:59:02;100062.97;;;14.17;68.72
41254;BME280;26987;59.928;30.306;2022-09-14T11:01:48;100063.66;;;14.07;69.28
41254;BME280;26987;59.928;30.306;2022-09-14T11:04:36;100072.00;;;13.89;70.24
41254;BME280;26987;59.928;30.306;2022-09-14T11:07:12;100062.03;;;13.72;71.44
41254;BME280;26987;59.928;30.306;2022-09-14T11:09:51;100063.81;;;13.66;71.44
41254;BME280;26987;59.928;30.306;2022-09-14T11:12:27;100053.69;;;13.56;71.68
41254;BME280;26987;59.928;30.306;2022-09-14T11:15:09;100058.59;;;13.59;71.92
41254;BME280;26987;59.928;30.306;2022-09-14T11:17:56;100057.03;;;13.64;73.06
41254;BME280;26987;59.928;30.306;2022-09-14T11:20:37;100057.44;;;13.72;73.51
41254;BME280;26987;59.928;30.306;2022-09-14T11:23:17;100055.00;;;13.71;74.51
41254;BME280;26987;59.928;30.306;2022-09-14T11:25:52;100053.53;;;13.63;73.42
41254;BME280;26987;59.928;30.306;2022-09-14T11:28:26;100063.09;;;13.54;74.09
41254;BME280;26987;59.928;30.306;2022-09-14T11:31:01;100061.56;;;13.46;74.64
41254;BME280;26987;59.928;30.306;2022-09-14T11:33:35;100059.38;;;13.43;75.58
41254;BME280;26987;59.928;30.306;2022-09-14T11:36:11;100057.41;;;13.38;76.01
41254;BME280;26987;59.928;30.306;2022-09-14T11:38:46;100055.84;;;13.42;76.71
41254;BME280;26987;59.928;30.306;2022-09-14T11:41:21;100054.63;;;13.33;77.57
41254;BME280;26987;59.928;30.306;2022-09-14T11:43:54;100049.13;;;13.28;78.95
41254;BME280;26987;59.928;30.306;2022-09-14T11:46:29;100046.34;;;13.22;78.58
41254;BME280;26987;59.928;30.306;2022-09-14T11:49:06;100033.38;;;13.19;80.28
41254;BME280;26987;59.928;30.306;2022-09-14T11:51:42;100043.66;;;13.22;81.60
41254;BME280;26987;59.928;30.306;2022-09-14T11:54:16;100043.66;;;13.52;78.33
41254;BME280;26987;59.928;30.306;2022-09-14T11:56:47;100038.63;;;13.26;79.44
41254;BME280;26987;59.928;30.306;2022-09-14T11:59:44;100033.66;;;13.35;79.59
41254;BME280;26987;59.928;30.306;2022-09-14T12:02:43;100038.56;;;13.38;79.17
41254;BME280;26987;59.928;30.306;2022-09-14T12:05:31;100040.19;;;13.39;79.73
41254;BME280;26987;59.928;30.306;2022-09-14T12:08:25;100043.56;;;13.46;78.87
41254;BME280;26987;59.928;30.306;2022-09-14T12:11:21;100039.78;;;13.47;77.67
41254;BME280;26987;59.928;30.306;2022-09-14T12:17:13;100021.50;;;13.32;77.61
41254;BME280;26987;59.928;30.306;2022-09-14T12:19:43;100024.97;;;13.16;78.08
41254;BME280;26987;59.928;30.306;2022-09-14T12:22:29;100012.72;;;13.08;77.52
41254;BME280;26987;59.928;30.306;2022-09-14T12:25:01;100013.97;;;13.34;76.33
41254;BME280;26987;59.928;30.306;2022-09-14T12:27:31;100019.00;;;13.14;77.73
41254;BME280;26987;59.928;30.306;2022-09-14T12:30:02;100015.09;;;13.04;77.26
41254;BME280;26987;59.928;30.306;2022-09-14T12:32:40;100017.84;;;13.09;76.16
41254;BME280;26987;59.928;30.306;2022-09-14T12:35:43;100014.78;;;13.18;77.44
41254;BME280;26987;59.928;30.306;2022-09-14T12:42:22;100006.16;;;13.33;78.33
41254;BME280;26987;59.928;30.306;2022-09-14T12:44:51;99996.03;;;13.23;78.82
41254;BME280;26987;59.928;30.306;2022-09-14T12:47:47;99994.88;;;13.36;79.11
41254;BME280;26987;59.928;30.306;2022-09-14T12:50:17;100000.44;;;13.29;79.48
41254;BME280;26987;59.928;30.306;2022-09-14T12:55:56;100001.75;;;13.27;78.37
41254;BME280;26987;59.928;30.306;2022-09-14T12:58:46;100000.59;;;13.22;78.00
41254;BME280;26987;59.928;30.306;2022-09-14T13:01:26;99986.94;;;13.12;78.27
41254;BME280;26987;59.928;30.306;2022-09-14T13:03:57;99988.25;;;13.09;77.82
41254;BME280;26987;59.928;30.306;2022-09-14T13:06:33;99977.25;;;13.11;78.55
41254;BME280;26987;59.928;30.306;2022-09-14T13:09:01;99977.50;;;13.09;77.33
41254;BME280;26987;59.928;30.306;2022-09-14T13:11:32;99982.63;;;13.11;77.42
41254;BME280;26987;59.928;30.306;2022-09-14T13:14:03;99974.31;;;13.12;77.39
41254;BME280;26987;59.928;30.306;2022-09-14T13:16:37;99979.53;;;13.19;77.42
41254;BME280;26987;59.928;30.306;2022-09-14T13:19:18;99981.84;;;13.28;77.61